Latest Weather Observations for Esperance Airport

IDW60801

Issued at 9:02 am WST Saturday 1 August 2015 (issued every 30 minutes, with the page automatically refreshed every 10 minutes)

About weather observations | Map of weather stations | Latest weather observations for WA | Other Formats
Station Details ID: 009542 Name: ESPERANCE AERO Lat: -33.68 Lon: 121.83 Height: 142.0 m
Data from the previous 72 hours. | See also: Recent months at Esperance Airport
Date/Time
WST
Temp
°C
App
Temp
°C
Dew
Point
Rel
Hum
%
Delta-T
°C
Wind Press
QNH
hPa
Press
MSL
hPa
Rain
since 9 am
mm
Dir
 
Spd
km/h
Gust
km/h
Spd
kts
Gust
kts
01/09:00am 11.1 7.5 9.7 91 0.7 SE 19 26 10 14 1023.6 1023.7 18.2
01/08:30am 10.9 7.1 9.8 93 0.6 SE 20 26 11 14 1023.1 1023.2 18.2
01/08:00am 10.7 6.8 9.6 93 0.6 SE 20 28 11 15 1022.8 1022.9 18.2
01/07:30am 10.6 6.9 10.1 97 0.3 SE 20 24 11 13 1022.3 1022.4 18.2
01/07:00am 10.5 6.3 9.9 96 0.3 SE 22 26 12 14 1021.7 1021.8 18.2
01/06:30am 10.3 6.4 9.4 94 0.5 SE 20 26 11 14 1021.2 1021.3 18.2
01/06:00am 10.3 6.6 9.4 94 0.5 SE 19 22 10 12 1020.7 1020.8 18.2
01/05:30am 10.4 6.5 9.5 94 0.5 SE 20 26 11 14 1020.1 1020.2 18.2
01/05:00am 10.4 5.4 9.5 94 0.5 ESE 26 32 14 17 1019.7 1019.8 18.2
01/04:30am 10.5 5.5 9.7 95 0.4 SE 26 35 14 19 1019.6 1019.7 18.2
01/04:00am 10.7 5.6 10.5 99 0.1 SE 28 37 15 20 1019.4 1019.4 18.2
01/03:30am 10.6 7.0 10.4 99 0.1 ESE 20 26 11 14 1019.3 1019.3 18.2
01/03:20am 10.6 7.2 10.4 99 0.1 ESE 19 24 10 13 1019.3 1019.3 18.2
01/03:05am 10.7 7.3 10.5 99 0.1 ESE 19 26 10 14 1019.5 1019.5 18.2
01/03:00am 10.9 7.3 10.7 99 0.1 ESE 20 28 11 15 1019.5 1019.5 18.0
01/02:30am 10.5 7.8 10.3 99 0.1 SE 15 19 8 10 1019.4 1019.4 18.0
01/02:00am 10.6 7.9 10.4 99 0.1 ESE 15 19 8 10 1019.2 1019.2 18.0
01/01:30am 10.6 7.5 10.4 99 0.1 SE 17 20 9 11 1019.3 1019.3 18.0
01/01:00am 10.7 8.0 10.5 99 0.1 SE 15 20 8 11 1018.7 1018.7 18.0
01/12:30am 10.6 6.2 10.4 99 0.1 ESE 24 32 13 17 1017.6 1017.6 18.0
01/12:00am 10.5 7.8 10.5 100 0.0 SE 15 19 8 10 1018.2 1018.2 18.0
 
Date/Time
WST
Temp
°C
App
Temp
°C
Dew
Point
Rel
Hum
%
Delta-T
°C
Wind Press
QNH
hPa
Press
MSL
hPa
Rain
since 9 am
mm
Dir
 
Spd
km/h
Gust
km/h
Spd
kts
Gust
kts
31/11:30pm 10.8 7.5 10.8 100 0.0 ESE 19 26 10 14 1018.3 1018.3 18.0
31/11:00pm 10.7 6.8 10.7 100 0.0 ESE 22 35 12 19 1017.9 1017.9 18.0
31/10:30pm 10.6 4.7 10.6 100 0.0 ESE 32 43 17 23 1016.8 1016.8 18.0
31/10:29pm 10.7 4.9 10.7 100 0.0 ESE 32 43 17 23 1016.9 1016.9 18.0
31/10:12pm 10.9 5.9 10.9 100 0.0 ESE 28 41 15 22 1017.8 1017.8 18.0
31/10:11pm 11.0 6.0 11.0 100 0.0 ESE 28 39 15 21 1017.9 1017.9 18.0
31/10:04pm 11.2 6.6 11.2 100 0.0 ESE 26 33 14 18 1018.3 1018.3 18.0
31/10:00pm 11.2 6.6 11.2 100 0.0 ESE 26 32 14 17 1018.5 1018.5 18.0
31/09:30pm 11.5 8.2 11.5 100 0.0 SE 20 26 11 14 1019.1 1019.1 17.0
31/09:02pm 11.7 9.0 11.7 100 0.0 SSE 17 22 9 12 1019.2 1019.2 16.2
31/09:00pm 11.7 9.0 11.7 100 0.0 SSE 17 22 9 12 1019.1 1019.1 16.2
31/08:58pm 11.7 9.0 11.7 100 0.0 SSE 17 22 9 12 1019.1 1019.1 16.2
31/08:45pm 11.8 8.8 11.8 100 0.0 SE 19 28 10 15 1018.8 1018.8 15.8
31/08:30pm 11.8 9.5 11.8 100 0.0 ESE 15 22 8 12 1018.6 1018.6 15.2
31/08:25pm 11.8 9.9 11.8 100 0.0 ESE 13 19 7 10 1018.4 1018.4 15.2
31/08:00pm 11.8 8.8 11.8 100 0.0 ESE 19 26 10 14 1017.6 1017.6 14.6
31/07:30pm 11.7 8.6 11.7 100 0.0 ESE 19 24 10 13 1017.3 1017.3 13.2
31/07:00pm 11.5 8.2 11.5 100 0.0 ESE 20 26 11 14 1016.6 1016.6 12.2
31/06:44pm 11.5 9.1 11.5 100 0.0 ESE 15 20 8 11 1016.5 1016.5 11.8
31/06:30pm 11.5 9.5 11.5 100 0.0 ESE 13 19 7 10 1016.5 1016.5 11.0
31/06:00pm 11.5 9.5 11.5 100 0.0 E 13 20 7 11 1016.7 1016.7 10.2
31/05:30pm 11.7 9.0 11.7 100 0.0 E 17 24 9 13 1015.8 1015.9 9.6
31/05:26pm 11.8 9.1 11.8 100 0.0 ESE 17 24 9 13 1015.7 1015.8 9.6
31/05:00pm 12.0 9.0 12.0 100 0.0 E 19 24 10 13 1015.3 1015.4 9.2
31/04:30pm 12.1 9.0 12.1 100 0.0 E 20 30 11 16 1015.0 1015.1 9.2
31/04:10pm 12.1 9.1 12.1 100 0.0 E 19 26 10 14 1014.9 1015.0 9.2
31/04:06pm 12.1 9.0 12.1 100 0.0 E 20 28 11 15 1014.8 1014.9 9.0
31/04:00pm 12.1 8.6 12.1 100 0.0 E 22 32 12 17 1014.9 1015.0 9.0
31/03:49pm 12.0 7.7 12.0 100 0.0 ESE 26 35 14 19 1014.7 1014.8 9.0
31/03:30pm 12.2 7.9 12.2 100 0.0 SE 26 33 14 18 1014.9 1015.0 8.8
31/03:00pm 12.6 7.3 12.6 100 0.0 ESE 32 41 17 22 1014.7 1014.8 8.2
31/02:30pm 12.6 7.3 12.6 100 0.0 SE 32 44 17 24 1014.6 1014.7 7.2
31/02:00pm 13.3 10.7 13.3 100 0.0 SSW 19 35 10 19 1014.5 1014.6 4.6
31/01:44pm 14.3 11.5 14.3 100 0.0 W 22 30 12 16 1014.1 1014.2 2.6
31/01:39pm 14.4 11.6 14.4 100 0.0 W 22 28 12 15 1014.1 1014.2 2.2
31/01:30pm 14.6 11.9 14.6 100 0.0 W 22 28 12 15 1013.9 1014.0 2.2
31/01:00pm 15.0 13.0 15.0 100 0.0 W 19 24 10 13 1014.2 1014.3 2.0
31/12:30pm 15.1 13.5 15.1 100 0.0 WSW 17 22 9 12 1014.0 1014.1 2.0
31/12:00pm 14.8 13.1 14.8 100 0.0 WNW 17 22 9 12 1014.3 1014.4 2.0
31/11:30am 14.5 12.3 14.5 100 0.0 WNW 19 24 10 13 1014.9 1015.0 1.6
31/11:00am 14.6 12.3 14.6 100 0.0 WNW 20 30 11 16 1015.3 1015.4 1.0
31/10:30am 14.6 12.5 14.6 100 0.0 NW 19 22 10 12 1014.8 1014.9 1.0
31/10:00am 14.7 12.4 14.7 100 0.0 WNW 20 28 11 15 1015.4 1015.5 0.6
31/09:30am 14.8 11.4 14.8 100 0.0 NW 26 35 14 19 1015.3 1015.4 0.0
31/09:00am 15.3 12.0 15.1 99 0.1 NW 26 33 14 18 1015.2 1015.3 0.6
31/08:30am 14.9 12.2 14.7 99 0.1 NW 22 32 12 17 1015.0 1015.1 0.6
31/08:00am 14.7 12.5 14.5 99 0.1 NW 19 26 10 14 1014.8 1014.9 0.6
31/07:30am 14.7 12.3 14.5 99 0.1 NW 20 26 11 14 1014.8 1014.9 0.6
31/07:00am 14.4 11.6 14.2 99 0.1 NW 22 28 12 15 1014.4 1014.5 0.6
31/06:30am 14.7 12.3 14.5 99 0.1 WNW 20 26 11 14 1014.7 1014.8 0.6
31/06:00am 14.8 12.7 14.6 99 0.1 NW 19 26 10 14 1014.3 1014.4 0.6
31/05:30am 15.2 11.5 15.0 99 0.1 NW 28 37 15 20 1014.3 1014.4 0.6
31/05:00am 15.2 11.9 15.0 99 0.1 NW 26 37 14 20 1014.0 1014.1 0.6
31/04:30am 15.2 12.3 15.0 99 0.1 NNW 24 33 13 18 1014.0 1014.1 0.6
31/04:00am 15.1 12.5 14.9 99 0.1 NNW 22 32 12 17 1014.2 1014.3 0.6
31/03:30am 15.2 11.9 15.0 99 0.1 NNW 26 39 14 21 1014.3 1014.4 0.6
31/03:00am 14.6 11.5 14.6 100 0.0 NNW 24 33 13 18 1014.4 1014.5 0.6
31/02:30am 14.7 12.0 14.7 100 0.0 NNW 22 30 12 16 1014.8 1014.9 0.6
31/02:00am 14.8 11.8 14.8 100 0.0 N 24 32 13 17 1015.0 1015.1 0.6
31/01:30am 14.9 12.7 14.9 100 0.0 NNW 20 26 11 14 1016.0 1016.1 0.6
31/01:00am 15.0 12.4 15.0 100 0.0 N 22 32 12 17 1016.1 1016.2 0.6
31/12:30am 14.7 11.7 14.7 100 0.0 N 24 28 13 15 1016.5 1016.5 0.6
31/12:00am 14.7 11.7 14.7 100 0.0 N 24 32 13 17 1016.9 1016.9 0.6
 
Date/Time
WST
Temp
°C
App
Temp
°C
Dew
Point
Rel
Hum
%
Delta-T
°C
Wind Press
QNH
hPa
Press
MSL
hPa
Rain
since 9 am
mm
Dir
 
Spd
km/h
Gust
km/h
Spd
kts
Gust
kts
30/11:30pm 14.5 11.4 14.5 100 0.0 N 24 32 13 17 1017.5 1017.5 0.2
30/11:00pm 14.1 10.8 14.1 100 0.0 N 24 30 13 16 1017.7 1017.7 0.2
30/10:30pm 14.1 11.6 14.1 100 0.0 N 20 26 11 14 1018.2 1018.2 0.2
30/10:00pm 13.9 11.0 13.9 100 0.0 NNE 22 28 12 15 1018.5 1018.5 0.2
30/09:30pm 13.5 11.0 13.5 100 0.0 NNE 19 24 10 13 1019.4 1019.4 0.0
30/09:00pm 13.3 11.1 13.3 100 0.0 NE 17 24 9 13 1019.6 1019.7 0.0
30/08:30pm 13.4 11.2 13.4 100 0.0 NE 17 24 9 13 1020.0 1020.1 0.0
30/08:00pm 13.3 11.1 13.3 100 0.0 NE 17 24 9 13 1020.0 1020.1 0.0
30/07:30pm 13.2 11.7 13.2 100 0.0 ENE 13 19 7 10 1020.2 1020.3 0.0
30/07:00pm 13.2 11.7 13.2 100 0.0 ENE 13 20 7 11 1020.4 1020.5 0.0
30/06:30pm 13.4 12.0 13.4 100 0.0 ENE 13 17 7 9 1020.5 1020.6 0.0
30/06:00pm 13.8 12.9 13.8 100 0.0 ENE 11 17 6 9 1020.6 1020.7 0.0
30/05:30pm 14.3 14.3 14.1 99 0.1 NE 7 11 4 6 1021.0 1021.1 0.0
30/05:00pm 14.7 14.8 14.5 99 0.1 ENE 7 11 4 6 1021.1 1021.2 0.0
30/04:30pm 15.0 15.2 14.8 99 0.1 NE 7 13 4 7 1020.9 1021.0 0.0
30/04:00pm 15.4 15.8 15.2 99 0.1 NE 7 9 4 5 1021.2 1021.3 0.0
30/03:30pm 15.8 16.2 15.2 96 0.3 ENE 7 11 4 6 1021.3 1021.4 0.0
30/03:00pm 15.9 15.8 14.9 94 0.6 ENE 9 13 5 7 1021.6 1021.7 0.0
30/02:30pm 16.1 16.3 14.8 92 0.8 NE 7 11 4 6 1022.0 1022.1 0.0
30/02:00pm 16.1 16.6 15.5 96 0.4 NNE 7 11 4 6 1022.1 1022.2 0.0
30/01:30pm 15.8 16.2 15.2 96 0.3 NE 7 11 4 6 1022.3 1022.4 0.0
30/01:00pm 15.9 16.2 14.9 94 0.6 NE 7 11 4 6 1022.4 1022.5 0.0
30/12:30pm 16.1 15.7 15.3 95 0.5 E 11 15 6 8 1022.8 1022.9 0.0
30/12:00pm 15.3 15.2 15.0 98 0.2 NE 9 15 5 8 1023.0 1023.1 0.0
30/11:53am 15.4 15.0 15.2 99 0.1 ENE 11 15 6 8 1023.0 1023.1 0.0
30/11:30am 14.8 14.6 14.6 99 0.1 E 9 15 5 8 1023.3 1023.4 0.0
30/11:00am 14.7 14.5 14.7 100 0.0 ENE 9 15 5 8 1023.6 1023.7 0.0
30/10:30am 14.5 13.9 14.5 100 0.0 E 11 17 6 9 1023.6 1023.7 0.0
30/10:00am 13.7 12.4 13.7 100 0.0 ENE 13 19 7 10 1023.6 1023.7 0.0
30/09:30am 13.4 12.0 13.4 100 0.0 E 13 19 7 10 1023.9 1023.9 0.0
30/09:00am 13.2 11.4 13.2 100 0.0 ESE 15 19 8 10 1023.9 1023.9 2.0
30/08:53am 13.3 11.9 13.3 100 0.0 ESE 13 19 7 10 1023.7 1023.8 2.0
30/08:44am 13.4 12.8 13.4 100 0.0 E 9 13 5 7 1023.6 1023.7 2.0
30/08:42am 13.3 13.0 13.3 100 0.0 E 7 13 4 7 1023.6 1023.7 2.0
30/08:30am 12.9 13.8 12.9 100 0.0 CALM 0 6 0 3 1023.7 1023.8 2.0
30/08:00am 12.0 12.6 12.0 100 0.0 CALM 0 4 0 2 1023.1 1023.2 2.0
30/07:30am 11.7 12.2 11.7 100 0.0 CALM 0 0 0 0 1022.8 1022.9 2.0
30/07:07am 11.5 10.8 11.5 100 0.0 NNW 6 7 3 4 1022.6 1022.7 1.8
30/07:00am 11.3 10.6 11.3 100 0.0 N 6 6 3 3 1022.5 1022.6 1.8
30/06:33am 11.4 10.5 11.4 100 0.0 NW 7 9 4 5 1022.4 1022.5 1.8
30/06:30am 11.3 10.4 11.3 100 0.0 NW 7 11 4 6 1022.4 1022.5 1.8
30/06:00am 11.1 9.4 11.1 100 0.0 W 11 13 6 7 1022.1 1022.2 1.8
30/05:30am 11.1 9.8 11.1 100 0.0 WNW 9 13 5 7 1021.8 1021.9 0.2
30/05:28am 11.1 9.4 11.1 100 0.0 WNW 11 13 6 7 1021.7 1021.8 0.2
30/05:27am 11.0 9.2 11.0 100 0.0 WNW 11 13 6 7 1021.7 1021.8 0.2
30/05:20am 10.9 9.1 10.9 100 0.0 NW 11 13 6 7 1021.6 1021.7 0.2
30/05:01am 10.2 8.6 10.2 100 0.0 NW 9 13 5 7 1021.5 1021.6 0.2
30/05:00am 10.2 8.6 10.2 100 0.0 NW 9 13 5 7 1021.5 1021.6 0.2
30/04:40am 10.9 8.7 10.9 100 0.0 NW 13 19 7 10 1021.4 1021.5 0.2
30/04:34am 10.7 8.9 10.7 100 0.0 NW 11 15 6 8 1021.3 1021.4 0.2
30/04:30am 10.7 8.9 10.7 100 0.0 NW 11 13 6 7 1021.2 1021.3 0.2
30/04:00am 11.0 9.2 11.0 100 0.0 NW 11 13 6 7 1021.0 1021.1 0.0
30/03:30am 11.4 9.4 11.4 100 0.0 NW 13 17 7 9 1021.2 1021.3 0.0
30/03:00am 11.5 9.5 11.5 100 0.0 NW 13 17 7 9 1020.8 1020.9 0.0
30/02:30am 11.1 9.4 11.1 100 0.0 NW 11 15 6 8 1020.8 1020.9 0.0
30/02:00am 11.6 9.3 11.6 100 0.0 WNW 15 19 8 10 1020.9 1021.0 0.0
30/01:30am 11.9 9.6 11.9 100 0.0 WNW 15 20 8 11 1020.7 1020.8 0.0
30/01:00am 12.0 9.4 12.0 100 0.0 WNW 17 20 9 11 1020.5 1020.6 0.0
30/12:30am 12.0 9.8 12.0 100 0.0 WNW 15 19 8 10 1020.3 1020.4 0.0
30/12:00am 11.5 9.5 11.5 100 0.0 NW 13 15 7 8 1019.9 1020.0 0.0
 
Date/Time
WST
Temp
°C
App
Temp
°C
Dew
Point
Rel
Hum
%
Delta-T
°C
Wind Press
QNH
hPa
Press
MSL
hPa
Rain
since 9 am
mm
Dir
 
Spd
km/h
Gust
km/h
Spd
kts
Gust
kts
29/11:30pm 11.9 9.6 11.9 100 0.0 WNW 15 19 8 10 1020.1 1020.2 0.0
29/11:00pm 12.1 9.5 11.9 99 0.1 WNW 17 20 9 11 1020.2 1020.3 0.0
29/10:30pm 12.9 9.9 12.7 99 0.1 WNW 20 24 11 13 1020.2 1020.3 0.0
29/10:00pm 13.0 10.6 12.8 99 0.1 NW 17 22 9 12 1019.8 1019.9 0.0
29/09:30pm 13.2 10.9 13.0 99 0.1 NW 17 22 9 12 1019.5 1019.5 0.0
29/09:00pm 12.4 10.6 12.2 99 0.1 NW 13 19 7 10 1019.9 1020.0 0.0
29/08:30pm 12.5 11.1 12.3 99 0.1 NW 11 13 6 7 1019.8 1019.9 0.0
29/08:00pm 12.3 10.9 12.3 100 0.0 NNW 11 15 6 8 1019.6 1019.7 0.0
29/07:30pm 12.8 11.5 12.6 99 0.1 WNW 11 13 6 7 1019.2 1019.2 0.0
29/07:00pm 13.1 12.3 12.9 99 0.1 NW 9 11 5 6 1019.2 1019.2 0.0
29/06:30pm 13.7 13.1 13.5 99 0.1 WNW 9 11 5 6 1019.0 1019.0 0.0
29/06:00pm 14.2 14.1 14.0 99 0.1 W 7 9 4 5 1018.8 1018.8 0.0
29/05:30pm 14.5 14.2 14.3 99 0.1 NW 9 9 5 5 1018.6 1018.6 0.0
29/05:00pm 14.6 14.3 14.3 98 0.2 NW 9 11 5 6 1018.5 1018.5 0.0
29/04:30pm 15.0 14.0 14.5 97 0.3 NNW 13 15 7 8 1018.4 1018.4 0.0
29/04:00pm 15.4 15.2 14.6 95 0.5 NNW 9 13 5 7 1017.8 1017.8 0.0
29/03:30pm 16.0 15.1 14.9 93 0.6 NNW 13 17 7 9 1017.9 1017.9 0.0
29/03:00pm 16.0 14.1 14.2 89 1.0 WNW 17 22 9 12 1017.6 1017.6 0.0
29/02:30pm 16.5 15.2 14.7 89 1.0 WNW 15 20 8 11 1017.2 1017.2 0.0
29/02:00pm 16.5 14.9 15.0 91 0.9 NW 17 20 9 11 1017.1 1017.1 0.0
29/01:30pm 15.8 14.3 14.2 90 0.9 WNW 15 20 8 11 1017.0 1017.0 0.0
29/01:00pm 15.5 13.9 14.0 91 0.9 WNW 15 19 8 10 1017.2 1017.2 0.0
29/12:30pm 15.5 13.9 13.9 90 0.9 WNW 15 19 8 10 1017.6 1017.6 0.0
29/12:00pm 15.0 13.7 13.7 92 0.7 W 13 17 7 9 1017.9 1017.9 0.0
29/11:30am 14.7 13.0 13.7 94 0.6 WNW 15 20 8 11 1018.4 1018.4 0.0
29/11:00am 14.5 12.4 13.7 95 0.4 WNW 17 20 9 11 1018.6 1018.6 0.0
29/10:30am 14.0 12.5 13.1 94 0.5 WNW 13 19 7 10 1018.6 1018.6 0.0
29/10:00am 14.1 12.9 13.9 99 0.1 WNW 13 19 7 10 1018.8 1018.8 0.0
29/09:30am 12.8 10.8 12.6 99 0.1 WNW 15 19 8 10 1019.0 1019.0 0.0

Other Formats:

Comma delimited format used in spreadsheet applications
http://www.bom.gov.au/fwo/IDW60801/IDW60801.95638.axf

JavaScript Object Notation format (JSON) in row-major order
http://www.bom.gov.au/fwo/IDW60801/IDW60801.95638.json